sensor_id;sensor_type;location;lat;lon;timestamp;P1;durP1;ratioP1;P2;durP2;ratioP2
77362;SDS011;66428;47.322;9.432;2023-06-26T00:00:56;8.48;;;4.75;;
77362;SDS011;66428;47.322;9.432;2023-06-26T00:03:25;5.93;;;4.32;;
77362;SDS011;66428;47.322;9.432;2023-06-26T00:05:55;7.72;;;4.78;;
77362;SDS011;66428;47.322;9.432;2023-06-26T00:08:27;6.25;;;4.32;;
77362;SDS011;66428;47.322;9.432;2023-06-26T00:10:55;7.25;;;4.65;;
77362;SDS011;66428;47.322;9.432;2023-06-26T00:13:23;7.80;;;5.10;;
77362;SDS011;66428;47.322;9.432;2023-06-26T00:15:51;6.57;;;4.70;;
77362;SDS011;66428;47.322;9.432;2023-06-26T00:18:18;6.93;;;5.05;;
77362;SDS011;66428;47.322;9.432;2023-06-26T00:20:47;8.38;;;5.03;;
77362;SDS011;66428;47.322;9.432;2023-06-26T00:23:16;7.32;;;5.10;;
77362;SDS011;66428;47.322;9.432;2023-06-26T00:25:44;6.75;;;4.72;;
77362;SDS011;66428;47.322;9.432;2023-06-26T00:28:11;6.60;;;4.93;;
77362;SDS011;66428;47.322;9.432;2023-06-26T00:30:41;12.48;;;5.35;;
77362;SDS011;66428;47.322;9.432;2023-06-26T00:33:09;7.28;;;4.85;;
77362;SDS011;66428;47.322;9.432;2023-06-26T00:35:37;6.88;;;4.93;;
77362;SDS011;66428;47.322;9.432;2023-06-26T00:38:06;8.88;;;4.88;;
77362;SDS011;66428;47.322;9.432;2023-06-26T00:40:36;8.27;;;5.28;;
77362;SDS011;66428;47.322;9.432;2023-06-26T00:43:04;9.15;;;5.03;;
77362;SDS011;66428;47.322;9.432;2023-06-26T00:45:32;8.68;;;5.10;;
77362;SDS011;66428;47.322;9.432;2023-06-26T00:48:09;6.85;;;4.80;;
77362;SDS011;66428;47.322;9.432;2023-06-26T00:50:39;7.13;;;5.45;;
77362;SDS011;66428;47.322;9.432;2023-06-26T00:53:09;7.90;;;5.18;;
77362;SDS011;66428;47.322;9.432;2023-06-26T00:55:36;6.20;;;4.97;;
77362;SDS011;66428;47.322;9.432;2023-06-26T00:58:04;6.82;;;4.93;;
77362;SDS011;66428;47.322;9.432;2023-06-26T01:00:34;8.23;;;5.40;;
77362;SDS011;66428;47.322;9.432;2023-06-26T01:03:02;7.60;;;4.90;;
77362;SDS011;66428;47.322;9.432;2023-06-26T01:05:30;8.55;;;5.32;;
77362;SDS011;66428;47.322;9.432;2023-06-26T01:07:58;7.35;;;5.38;;
77362;SDS011;66428;47.322;9.432;2023-06-26T01:10:30;8.65;;;5.03;;
77362;SDS011;66428;47.322;9.432;2023-06-26T01:12:59;8.75;;;5.57;;
77362;SDS011;66428;47.322;9.432;2023-06-26T01:15:28;9.60;;;4.72;;
77362;SDS011;66428;47.322;9.432;2023-06-26T01:17:56;8.63;;;5.07;;
77362;SDS011;66428;47.322;9.432;2023-06-26T01:20:34;8.55;;;5.50;;
77362;SDS011;66428;47.322;9.432;2023-06-26T01:23:04;7.35;;;4.28;;
77362;SDS011;66428;47.322;9.432;2023-06-26T01:25:35;7.75;;;4.97;;
77362;SDS011;66428;47.322;9.432;2023-06-26T01:28:10;7.47;;;5.22;;
77362;SDS011;66428;47.322;9.432;2023-06-26T01:30:42;8.77;;;5.45;;
77362;SDS011;66428;47.322;9.432;2023-06-26T01:33:10;8.05;;;5.88;;
77362;SDS011;66428;47.322;9.432;2023-06-26T01:35:40;9.20;;;5.40;;
77362;SDS011;66428;47.322;9.432;2023-06-26T01:38:12;7.90;;;5.45;;
77362;SDS011;66428;47.322;9.432;2023-06-26T01:40:42;10.75;;;6.25;;
77362;SDS011;66428;47.322;9.432;2023-06-26T01:43:15;9.90;;;6.55;;
77362;SDS011;66428;47.322;9.432;2023-06-26T01:45:43;8.10;;;5.50;;
77362;SDS011;66428;47.322;9.432;2023-06-26T01:48:13;10.07;;;5.38;;
77362;SDS011;66428;47.322;9.432;2023-06-26T01:50:44;7.95;;;5.53;;
77362;SDS011;66428;47.322;9.432;2023-06-26T01:53:12;8.70;;;5.97;;
77362;SDS011;66428;47.322;9.432;2023-06-26T01:55:42;9.25;;;5.78;;
77362;SDS011;66428;47.322;9.432;2023-06-26T01:58:16;7.78;;;4.95;;
77362;SDS011;66428;47.322;9.432;2023-06-26T02:00:45;9.55;;;6.10;;
77362;SDS011;66428;47.322;9.432;2023-06-26T02:03:13;8.57;;;4.85;;
77362;SDS011;66428;47.322;9.432;2023-06-26T02:05:40;7.00;;;4.85;;
77362;SDS011;66428;47.322;9.432;2023-06-26T02:08:08;8.02;;;5.25;;
77362;SDS011;66428;47.322;9.432;2023-06-26T02:10:38;9.32;;;6.00;;
77362;SDS011;66428;47.322;9.432;2023-06-26T02:13:07;7.82;;;5.22;;
77362;SDS011;66428;47.322;9.432;2023-06-26T02:15:36;7.63;;;5.25;;
77362;SDS011;66428;47.322;9.432;2023-06-26T02:18:04;10.13;;;5.82;;
77362;SDS011;66428;47.322;9.432;2023-06-26T02:20:32;7.75;;;5.43;;
77362;SDS011;66428;47.322;9.432;2023-06-26T02:23:03;10.73;;;6.53;;
77362;SDS011;66428;47.322;9.432;2023-06-26T02:25:31;9.88;;;5.88;;
77362;SDS011;66428;47.322;9.432;2023-06-26T02:28:01;9.60;;;5.70;;
77362;SDS011;66428;47.322;9.432;2023-06-26T02:30:28;8.95;;;5.60;;
77362;SDS011;66428;47.322;9.432;2023-06-26T02:33:00;9.82;;;6.07;;
77362;SDS011;66428;47.322;9.432;2023-06-26T02:35:30;10.00;;;5.90;;
77362;SDS011;66428;47.322;9.432;2023-06-26T02:37:59;9.10;;;5.55;;
77362;SDS011;66428;47.322;9.432;2023-06-26T02:40:27;8.93;;;5.75;;
77362;SDS011;66428;47.322;9.432;2023-06-26T02:42:55;8.00;;;5.32;;
77362;SDS011;66428;47.322;9.432;2023-06-26T02:45:22;9.07;;;5.82;;
77362;SDS011;66428;47.322;9.432;2023-06-26T02:47:50;9.07;;;6.20;;
77362;SDS011;66428;47.322;9.432;2023-06-26T02:50:20;9.13;;;5.53;;
77362;SDS011;66428;47.322;9.432;2023-06-26T02:53:07;8.65;;;5.78;;
77362;SDS011;66428;47.322;9.432;2023-06-26T02:55:42;9.60;;;6.13;;
77362;SDS011;66428;47.322;9.432;2023-06-26T02:58:10;8.63;;;5.65;;
77362;SDS011;66428;47.322;9.432;2023-06-26T03:00:40;7.72;;;5.68;;
77362;SDS011;66428;47.322;9.432;2023-06-26T03:03:13;7.85;;;5.40;;
77362;SDS011;66428;47.322;9.432;2023-06-26T03:05:42;8.13;;;5.40;;
77362;SDS011;66428;47.322;9.432;2023-06-26T03:08:10;8.20;;;5.53;;
77362;SDS011;66428;47.322;9.432;2023-06-26T03:10:40;9.68;;;6.20;;
77362;SDS011;66428;47.322;9.432;2023-06-26T03:13:11;8.85;;;5.97;;
77362;SDS011;66428;47.322;9.432;2023-06-26T03:15:39;8.38;;;6.45;;
77362;SDS011;66428;47.322;9.432;2023-06-26T03:18:07;9.73;;;6.63;;
77362;SDS011;66428;47.322;9.432;2023-06-26T03:20:36;9.10;;;6.13;;
77362;SDS011;66428;47.322;9.432;2023-06-26T03:23:05;10.00;;;6.07;;
77362;SDS011;66428;47.322;9.432;2023-06-26T03:25:36;10.18;;;5.82;;
77362;SDS011;66428;47.322;9.432;2023-06-26T03:28:19;9.68;;;6.45;;
77362;SDS011;66428;47.322;9.432;2023-06-26T03:30:49;8.68;;;6.45;;
77362;SDS011;66428;47.322;9.432;2023-06-26T03:33:17;8.45;;;6.15;;
77362;SDS011;66428;47.322;9.432;2023-06-26T03:35:47;9.70;;;6.97;;
77362;SDS011;66428;47.322;9.432;2023-06-26T03:38:16;10.15;;;5.70;;
77362;SDS011;66428;47.322;9.432;2023-06-26T03:40:45;8.13;;;5.70;;
77362;SDS011;66428;47.322;9.432;2023-06-26T03:43:13;8.43;;;5.43;;
77362;SDS011;66428;47.322;9.432;2023-06-26T03:46:16;9.07;;;6.10;;
77362;SDS011;66428;47.322;9.432;2023-06-26T03:48:46;10.35;;;6.25;;
77362;SDS011;66428;47.322;9.432;2023-06-26T03:51:15;9.48;;;6.25;;
77362;SDS011;66428;47.322;9.432;2023-06-26T03:53:44;10.40;;;5.95;;
77362;SDS011;66428;47.322;9.432;2023-06-26T03:56:14;8.90;;;6.50;;
77362;SDS011;66428;47.322;9.432;2023-06-26T03:58:44;8.55;;;5.72;;
77362;SDS011;66428;47.322;9.432;2023-06-26T04:01:12;10.07;;;6.00;;
77362;SDS011;66428;47.322;9.432;2023-06-26T04:03:42;10.05;;;6.60;;
77362;SDS011;66428;47.322;9.432;2023-06-26T04:06:10;7.97;;;5.88;;
77362;SDS011;66428;47.322;9.432;2023-06-26T04:08:40;10.75;;;6.85;;
77362;SDS011;66428;47.322;9.432;2023-06-26T04:11:09;9.77;;;6.65;;
77362;SDS011;66428;47.322;9.432;2023-06-26T04:13:39;8.45;;;6.35;;
77362;SDS011;66428;47.322;9.432;2023-06-26T04:16:07;9.30;;;6.05;;
77362;SDS011;66428;47.322;9.432;2023-06-26T04:18:38;11.15;;;6.25;;
77362;SDS011;66428;47.322;9.432;2023-06-26T04:21:06;8.13;;;5.90;;
77362;SDS011;66428;47.322;9.432;2023-06-26T04:23:34;8.38;;;6.25;;
77362;SDS011;66428;47.322;9.432;2023-06-26T04:26:03;9.85;;;6.07;;
77362;SDS011;66428;47.322;9.432;2023-06-26T04:28:32;9.48;;;7.05;;
77362;SDS011;66428;47.322;9.432;2023-06-26T04:31:03;8.25;;;5.70;;
77362;SDS011;66428;47.322;9.432;2023-06-26T04:33:33;8.25;;;6.15;;
77362;SDS011;66428;47.322;9.432;2023-06-26T04:36:02;9.07;;;6.40;;
77362;SDS011;66428;47.322;9.432;2023-06-26T04:38:30;10.13;;;6.50;;
77362;SDS011;66428;47.322;9.432;2023-06-26T04:41:00;11.68;;;6.78;;
77362;SDS011;66428;47.322;9.432;2023-06-26T04:43:29;8.35;;;6.30;;
77362;SDS011;66428;47.322;9.432;2023-06-26T04:46:01;10.60;;;6.30;;
77362;SDS011;66428;47.322;9.432;2023-06-26T04:48:31;10.32;;;6.68;;
77362;SDS011;66428;47.322;9.432;2023-06-26T04:50:59;9.50;;;7.25;;
77362;SDS011;66428;47.322;9.432;2023-06-26T04:53:27;10.10;;;6.35;;
77362;SDS011;66428;47.322;9.432;2023-06-26T04:55:57;10.02;;;6.75;;
77362;SDS011;66428;47.322;9.432;2023-06-26T04:58:24;9.15;;;5.80;;
77362;SDS011;66428;47.322;9.432;2023-06-26T05:00:54;8.40;;;5.80;;
77362;SDS011;66428;47.322;9.432;2023-06-26T05:03:24;10.30;;;5.95;;
77362;SDS011;66428;47.322;9.432;2023-06-26T05:05:51;9.85;;;6.55;;
77362;SDS011;66428;47.322;9.432;2023-06-26T05:08:21;10.23;;;6.40;;
77362;SDS011;66428;47.322;9.432;2023-06-26T05:10:49;9.35;;;6.45;;
77362;SDS011;66428;47.322;9.432;2023-06-26T05:13:17;11.02;;;6.97;;
77362;SDS011;66428;47.322;9.432;2023-06-26T05:15:46;8.65;;;5.88;;
77362;SDS011;66428;47.322;9.432;2023-06-26T05:18:14;8.50;;;5.90;;
77362;SDS011;66428;47.322;9.432;2023-06-26T05:20:45;11.15;;;7.03;;
77362;SDS011;66428;47.322;9.432;2023-06-26T05:23:13;8.25;;;6.32;;
77362;SDS011;66428;47.322;9.432;2023-06-26T05:25:43;8.57;;;6.57;;
77362;SDS011;66428;47.322;9.432;2023-06-26T05:28:11;10.05;;;6.85;;
77362;SDS011;66428;47.322;9.432;2023-06-26T05:30:39;8.55;;;6.22;;
77362;SDS011;66428;47.322;9.432;2023-06-26T05:33:08;9.25;;;7.28;;
77362;SDS011;66428;47.322;9.432;2023-06-26T05:35:38;9.25;;;6.40;;
77362;SDS011;66428;47.322;9.432;2023-06-26T05:38:07;8.52;;;6.32;;
77362;SDS011;66428;47.322;9.432;2023-06-26T05:40:35;12.07;;;6.60;;
77362;SDS011;66428;47.322;9.432;2023-06-26T05:43:04;9.80;;;6.85;;
77362;SDS011;66428;47.322;9.432;2023-06-26T05:45:32;9.27;;;6.85;;
77362;SDS011;66428;47.322;9.432;2023-06-26T05:48:02;9.80;;;6.95;;
77362;SDS011;66428;47.322;9.432;2023-06-26T05:50:30;9.60;;;6.57;;
77362;SDS011;66428;47.322;9.432;2023-06-26T05:52:58;10.23;;;6.55;;
77362;SDS011;66428;47.322;9.432;2023-06-26T05:55:29;9.25;;;7.18;;
77362;SDS011;66428;47.322;9.432;2023-06-26T05:57:56;8.80;;;6.22;;
77362;SDS011;66428;47.322;9.432;2023-06-26T06:00:25;11.02;;;7.10;;
77362;SDS011;66428;47.322;9.432;2023-06-26T06:02:54;8.90;;;6.50;;
77362;SDS011;66428;47.322;9.432;2023-06-26T06:05:24;9.85;;;6.63;;
77362;SDS011;66428;47.322;9.432;2023-06-26T06:07:52;9.48;;;7.00;;
77362;SDS011;66428;47.322;9.432;2023-06-26T06:10:22;8.15;;;6.30;;
77362;SDS011;66428;47.322;9.432;2023-06-26T06:12:51;8.40;;;6.38;;
77362;SDS011;66428;47.322;9.432;2023-06-26T06:15:21;11.50;;;6.65;;
77362;SDS011;66428;47.322;9.432;2023-06-26T06:17:48;9.93;;;7.55;;
77362;SDS011;66428;47.322;9.432;2023-06-26T06:20:18;8.98;;;6.45;;
77362;SDS011;66428;47.322;9.432;2023-06-26T06:22:48;8.80;;;6.18;;
77362;SDS011;66428;47.322;9.432;2023-06-26T06:25:16;9.80;;;6.72;;
77362;SDS011;66428;47.322;9.432;2023-06-26T06:27:46;10.50;;;6.82;;
77362;SDS011;66428;47.322;9.432;2023-06-26T06:30:18;9.45;;;6.18;;
77362;SDS011;66428;47.322;9.432;2023-06-26T06:33:07;8.40;;;5.90;;
77362;SDS011;66428;47.322;9.432;2023-06-26T06:35:35;13.02;;;6.53;;
77362;SDS011;66428;47.322;9.432;2023-06-26T06:38:02;10.35;;;7.15;;
77362;SDS011;66428;47.322;9.432;2023-06-26T06:40:30;9.30;;;6.68;;
77362;SDS011;66428;47.322;9.432;2023-06-26T06:42:59;10.82;;;6.65;;
77362;SDS011;66428;47.322;9.432;2023-06-26T06:45:28;9.75;;;6.82;;
77362;SDS011;66428;47.322;9.432;2023-06-26T06:47:56;9.23;;;6.32;;
77362;SDS011;66428;47.322;9.432;2023-06-26T06:50:24;10.30;;;6.70;;
77362;SDS011;66428;47.322;9.432;2023-06-26T06:52:51;9.13;;;6.38;;
77362;SDS011;66428;47.322;9.432;2023-06-26T06:55:19;12.95;;;5.85;;
77362;SDS011;66428;47.322;9.432;2023-06-26T06:57:47;8.23;;;5.90;;
77362;SDS011;66428;47.322;9.432;2023-06-26T07:00:15;7.80;;;5.40;;
77362;SDS011;66428;47.322;9.432;2023-06-26T07:02:47;8.70;;;5.90;;
77362;SDS011;66428;47.322;9.432;2023-06-26T07:05:15;7.35;;;5.63;;
77362;SDS011;66428;47.322;9.432;2023-06-26T07:07:43;9.90;;;5.53;;
77362;SDS011;66428;47.322;9.432;2023-06-26T07:10:11;8.65;;;5.45;;
77362;SDS011;66428;47.322;9.432;2023-06-26T07:12:39;7.93;;;5.03;;
77362;SDS011;66428;47.322;9.432;2023-06-26T07:15:07;7.57;;;5.15;;
77362;SDS011;66428;47.322;9.432;2023-06-26T07:17:35;6.90;;;5.05;;
77362;SDS011;66428;47.322;9.432;2023-06-26T07:20:06;8.55;;;5.90;;
77362;SDS011;66428;47.322;9.432;2023-06-26T07:22:34;7.80;;;5.60;;
77362;SDS011;66428;47.322;9.432;2023-06-26T07:25:02;7.05;;;5.05;;
77362;SDS011;66428;47.322;9.432;2023-06-26T07:27:32;7.65;;;5.32;;
77362;SDS011;66428;47.322;9.432;2023-06-26T07:30:00;8.65;;;5.95;;
77362;SDS011;66428;47.322;9.432;2023-06-26T07:32:28;11.40;;;5.53;;
77362;SDS011;66428;47.322;9.432;2023-06-26T07:34:56;9.25;;;6.10;;
77362;SDS011;66428;47.322;9.432;2023-06-26T07:37:25;8.15;;;5.72;;
77362;SDS011;66428;47.322;9.432;2023-06-26T07:39:55;11.30;;;5.82;;
77362;SDS011;66428;47.322;9.432;2023-06-26T07:42:23;8.13;;;5.63;;
77362;SDS011;66428;47.322;9.432;2023-06-26T07:44:51;8.77;;;5.32;;
77362;SDS011;66428;47.322;9.432;2023-06-26T07:47:21;8.52;;;5.07;;
77362;SDS011;66428;47.322;9.432;2023-06-26T07:49:49;8.90;;;5.80;;
77362;SDS011;66428;47.322;9.432;2023-06-26T07:52:19;8.68;;;5.47;;
77362;SDS011;66428;47.322;9.432;2023-06-26T07:54:48;9.35;;;6.75;;
77362;SDS011;66428;47.322;9.432;2023-06-26T07:57:15;8.93;;;5.60;;
77362;SDS011;66428;47.322;9.432;2023-06-26T07:59:43;10.70;;;6.20;;
77362;SDS011;66428;47.322;9.432;2023-06-26T08:02:11;9.35;;;6.32;;
77362;SDS011;66428;47.322;9.432;2023-06-26T08:04:41;7.82;;;5.63;;
77362;SDS011;66428;47.322;9.432;2023-06-26T08:07:09;7.72;;;5.65;;
77362;SDS011;66428;47.322;9.432;2023-06-26T08:09:36;7.78;;;5.68;;
77362;SDS011;66428;47.322;9.432;2023-06-26T08:12:08;9.27;;;5.45;;
77362;SDS011;66428;47.322;9.432;2023-06-26T08:17:08;7.72;;;4.93;;
77362;SDS011;66428;47.322;9.432;2023-06-26T08:19:38;8.18;;;5.78;;
77362;SDS011;66428;47.322;9.432;2023-06-26T08:22:08;7.22;;;5.47;;
77362;SDS011;66428;47.322;9.432;2023-06-26T08:24:36;9.13;;;5.95;;
77362;SDS011;66428;47.322;9.432;2023-06-26T08:27:04;8.77;;;5.38;;
77362;SDS011;66428;47.322;9.432;2023-06-26T08:29:35;8.15;;;6.22;;
77362;SDS011;66428;47.322;9.432;2023-06-26T08:32:05;10.30;;;6.10;;
77362;SDS011;66428;47.322;9.432;2023-06-26T08:34:33;8.10;;;5.47;;
77362;SDS011;66428;47.322;9.432;2023-06-26T08:37:01;8.10;;;5.15;;
77362;SDS011;66428;47.322;9.432;2023-06-26T08:39:30;8.82;;;5.90;;
77362;SDS011;66428;47.322;9.432;2023-06-26T08:41:58;9.80;;;5.38;;
77362;SDS011;66428;47.322;9.432;2023-06-26T08:44:28;8.10;;;5.78;;
77362;SDS011;66428;47.322;9.432;2023-06-26T08:46:57;8.88;;;5.70;;
77362;SDS011;66428;47.322;9.432;2023-06-26T08:49:28;8.57;;;5.80;;
77362;SDS011;66428;47.322;9.432;2023-06-26T08:51:57;6.82;;;5.65;;
77362;SDS011;66428;47.322;9.432;2023-06-26T08:54:28;8.68;;;5.68;;
77362;SDS011;66428;47.322;9.432;2023-06-26T08:56:58;7.57;;;5.57;;
77362;SDS011;66428;47.322;9.432;2023-06-26T08:59:26;9.43;;;6.32;;
77362;SDS011;66428;47.322;9.432;2023-06-26T09:01:54;7.82;;;5.63;;
77362;SDS011;66428;47.322;9.432;2023-06-26T09:04:23;8.65;;;5.30;;
77362;SDS011;66428;47.322;9.432;2023-06-26T09:06:52;7.40;;;5.32;;
77362;SDS011;66428;47.322;9.432;2023-06-26T09:09:20;7.68;;;5.63;;
77362;SDS011;66428;47.322;9.432;2023-06-26T09:11:48;8.65;;;5.68;;
77362;SDS011;66428;47.322;9.432;2023-06-26T09:14:15;8.80;;;5.90;;
77362;SDS011;66428;47.322;9.432;2023-06-26T09:16:43;8.25;;;5.53;;
77362;SDS011;66428;47.322;9.432;2023-06-26T09:19:11;8.57;;;6.22;;
77362;SDS011;66428;47.322;9.432;2023-06-26T09:21:43;7.80;;;5.35;;
77362;SDS011;66428;47.322;9.432;2023-06-26T09:24:10;9.05;;;6.05;;
77362;SDS011;66428;47.322;9.432;2023-06-26T09:26:39;9.55;;;6.22;;
77362;SDS011;66428;47.322;9.432;2023-06-26T09:29:07;8.48;;;6.07;;
77362;SDS011;66428;47.322;9.432;2023-06-26T09:31:36;7.53;;;5.60;;
77362;SDS011;66428;47.322;9.432;2023-06-26T09:34:10;6.28;;;5.25;;
77362;SDS011;66428;47.322;9.432;2023-06-26T09:36:37;8.35;;;6.05;;
77362;SDS011;66428;47.322;9.432;2023-06-26T09:39:10;8.63;;;6.25;;
77362;SDS011;66428;47.322;9.432;2023-06-26T09:41:40;8.70;;;6.18;;
77362;SDS011;66428;47.322;9.432;2023-06-26T09:44:09;8.38;;;5.80;;
77362;SDS011;66428;47.322;9.432;2023-06-26T09:46:37;8.98;;;5.88;;
77362;SDS011;66428;47.322;9.432;2023-06-26T09:49:05;10.40;;;6.60;;
77362;SDS011;66428;47.322;9.432;2023-06-26T09:51:34;7.50;;;6.00;;
77362;SDS011;66428;47.322;9.432;2023-06-26T09:54:02;8.00;;;6.07;;
77362;SDS011;66428;47.322;9.432;2023-06-26T09:56:32;9.40;;;6.18;;
77362;SDS011;66428;47.322;9.432;2023-06-26T09:59:00;10.60;;;6.15;;
77362;SDS011;66428;47.322;9.432;2023-06-26T10:01:32;7.85;;;5.45;;
77362;SDS011;66428;47.322;9.432;2023-06-26T10:04:00;8.98;;;6.47;;
77362;SDS011;66428;47.322;9.432;2023-06-26T10:06:36;15.80;;;5.80;;
77362;SDS011;66428;47.322;9.432;2023-06-26T10:09:04;8.75;;;6.38;;
77362;SDS011;66428;47.322;9.432;2023-06-26T10:11:35;8.38;;;6.60;;
77362;SDS011;66428;47.322;9.432;2023-06-26T10:14:04;8.82;;;5.93;;
77362;SDS011;66428;47.322;9.432;2023-06-26T10:16:43;8.98;;;5.80;;
77362;SDS011;66428;47.322;9.432;2023-06-26T10:19:11;7.63;;;5.05;;
77362;SDS011;66428;47.322;9.432;2023-06-26T10:21:40;9.13;;;5.95;;
77362;SDS011;66428;47.322;9.432;2023-06-26T10:24:08;11.65;;;6.07;;
77362;SDS011;66428;47.322;9.432;2023-06-26T10:26:44;10.13;;;6.25;;
77362;SDS011;66428;47.322;9.432;2023-06-26T10:29:11;7.65;;;5.53;;
77362;SDS011;66428;47.322;9.432;2023-06-26T10:31:42;7.10;;;5.63;;
77362;SDS011;66428;47.322;9.432;2023-06-26T10:34:12;8.57;;;6.38;;
77362;SDS011;66428;47.322;9.432;2023-06-26T10:36:40;9.95;;;6.53;;
77362;SDS011;66428;47.322;9.432;2023-06-26T10:39:10;8.75;;;6.72;;
77362;SDS011;66428;47.322;9.432;2023-06-26T10:41:49;7.90;;;5.72;;
77362;SDS011;66428;47.322;9.432;2023-06-26T10:44:39;8.40;;;5.95;;
77362;SDS011;66428;47.322;9.432;2023-06-26T10:47:08;9.23;;;6.65;;
77362;SDS011;66428;47.322;9.432;2023-06-26T10:49:38;8.25;;;5.82;;
77362;SDS011;66428;47.322;9.432;2023-06-26T10:52:07;7.07;;;5.90;;
77362;SDS011;66428;47.322;9.432;2023-06-26T10:54:35;8.45;;;6.45;;
77362;SDS011;66428;47.322;9.432;2023-06-26T10:57:06;8.60;;;6.25;;
77362;SDS011;66428;47.322;9.432;2023-06-26T10:59:34;7.78;;;6.18;;
77362;SDS011;66428;47.322;9.432;2023-06-26T11:02:06;9.75;;;7.05;;
77362;SDS011;66428;47.322;9.432;2023-06-26T11:04:37;8.18;;;5.85;;
77362;SDS011;66428;47.322;9.432;2023-06-26T11:07:15;8.57;;;6.03;;
77362;SDS011;66428;47.322;9.432;2023-06-26T11:09:54;8.70;;;5.70;;
77362;SDS011;66428;47.322;9.432;2023-06-26T11:12:35;7.18;;;5.78;;
77362;SDS011;66428;47.322;9.432;2023-06-26T11:15:04;8.88;;;6.28;;
77362;SDS011;66428;47.322;9.432;2023-06-26T11:17:31;8.50;;;6.78;;
77362;SDS011;66428;47.322;9.432;2023-06-26T11:19:59;8.43;;;6.50;;
77362;SDS011;66428;47.322;9.432;2023-06-26T11:22:32;8.15;;;6.38;;
77362;SDS011;66428;47.322;9.432;2023-06-26T11:25:05;9.18;;;5.97;;
77362;SDS011;66428;47.322;9.432;2023-06-26T11:27:38;13.27;;;6.40;;
77362;SDS011;66428;47.322;9.432;2023-06-26T11:30:07;10.95;;;6.38;;
77362;SDS011;66428;47.322;9.432;2023-06-26T11:32:35;7.72;;;5.75;;
77362;SDS011;66428;47.322;9.432;2023-06-26T11:35:03;11.25;;;6.72;;
77362;SDS011;66428;47.322;9.432;2023-06-26T11:37:31;8.75;;;6.60;;
77362;SDS011;66428;47.322;9.432;2023-06-26T11:42:44;8.95;;;5.88;;
77362;SDS011;66428;47.322;9.432;2023-06-26T11:45:12;8.73;;;6.32;;
77362;SDS011;66428;47.322;9.432;2023-06-26T11:47:40;10.02;;;6.75;;
77362;SDS011;66428;47.322;9.432;2023-06-26T11:50:14;8.50;;;6.95;;
77362;SDS011;66428;47.322;9.432;2023-06-26T11:52:44;9.60;;;6.40;;
77362;SDS011;66428;47.322;9.432;2023-06-26T11:55:14;10.00;;;6.72;;
77362;SDS011;66428;47.322;9.432;2023-06-26T11:57:48;9.32;;;7.43;;
77362;SDS011;66428;47.322;9.432;2023-06-26T12:00:17;8.85;;;6.40;;
77362;SDS011;66428;47.322;9.432;2023-06-26T12:02:47;8.90;;;6.50;;
77362;SDS011;66428;47.322;9.432;2023-06-26T12:05:16;9.23;;;7.22;;
77362;SDS011;66428;47.322;9.432;2023-06-26T12:07:45;8.75;;;6.63;;
77362;SDS011;66428;47.322;9.432;2023-06-26T12:10:14;8.80;;;6.15;;
77362;SDS011;66428;47.322;9.432;2023-06-26T12:12:45;8.68;;;6.75;;
77362;SDS011;66428;47.322;9.432;2023-06-26T12:15:17;8.35;;;6.60;;
77362;SDS011;66428;47.322;9.432;2023-06-26T12:17:45;8.75;;;6.93;;
77362;SDS011;66428;47.322;9.432;2023-06-26T12:20:18;9.02;;;6.85;;
77362;SDS011;66428;47.322;9.432;2023-06-26T12:22:46;11.32;;;7.85;;
77362;SDS011;66428;47.322;9.432;2023-06-26T12:25:15;8.35;;;7.15;;
77362;SDS011;66428;47.322;9.432;2023-06-26T12:27:45;10.73;;;7.28;;
77362;SDS011;66428;47.322;9.432;2023-06-26T12:30:13;9.48;;;6.97;;
77362;SDS011;66428;47.322;9.432;2023-06-26T12:32:45;10.25;;;7.18;;
77362;SDS011;66428;47.322;9.432;2023-06-26T12:35:16;9.20;;;6.82;;
77362;SDS011;66428;47.322;9.432;2023-06-26T12:37:44;9.90;;;7.43;;
77362;SDS011;66428;47.322;9.432;2023-06-26T12:40:16;9.27;;;6.78;;
77362;SDS011;66428;47.322;9.432;2023-06-26T12:42:46;10.45;;;6.68;;
77362;SDS011;66428;47.322;9.432;2023-06-26T12:45:14;10.52;;;7.18;;
77362;SDS011;66428;47.322;9.432;2023-06-26T12:48:08;9.98;;;7.18;;
77362;SDS011;66428;47.322;9.432;2023-06-26T12:50:42;11.32;;;7.05;;
77362;SDS011;66428;47.322;9.432;2023-06-26T12:53:12;8.90;;;6.85;;
77362;SDS011;66428;47.322;9.432;2023-06-26T12:55:40;8.50;;;7.30;;
77362;SDS011;66428;47.322;9.432;2023-06-26T12:58:08;12.15;;;7.60;;
77362;SDS011;66428;47.322;9.432;2023-06-26T13:00:38;10.15;;;7.07;;
77362;SDS011;66428;47.322;9.432;2023-06-26T13:03:10;10.95;;;7.70;;
77362;SDS011;66428;47.322;9.432;2023-06-26T13:08:08;10.60;;;6.78;;
77362;SDS011;66428;47.322;9.432;2023-06-26T13:10:38;9.60;;;6.57;;
77362;SDS011;66428;47.322;9.432;2023-06-26T13:13:07;10.27;;;7.30;;
77362;SDS011;66428;47.322;9.432;2023-06-26T13:15:35;9.18;;;6.22;;
77362;SDS011;66428;47.322;9.432;2023-06-26T13:18:05;10.27;;;6.68;;
77362;SDS011;66428;47.322;9.432;2023-06-26T13:20:34;9.32;;;7.13;;
77362;SDS011;66428;47.322;9.432;2023-06-26T13:23:03;10.57;;;7.88;;
77362;SDS011;66428;47.322;9.432;2023-06-26T13:25:33;8.98;;;6.32;;
77362;SDS011;66428;47.322;9.432;2023-06-26T13:28:00;8.38;;;6.25;;
77362;SDS011;66428;47.322;9.432;2023-06-26T13:30:28;10.20;;;6.47;;
77362;SDS011;66428;47.322;9.432;2023-06-26T13:32:58;8.48;;;6.82;;
77362;SDS011;66428;47.322;9.432;2023-06-26T13:35:26;9.48;;;6.85;;
77362;SDS011;66428;47.322;9.432;2023-06-26T13:37:56;10.20;;;7.32;;
77362;SDS011;66428;47.322;9.432;2023-06-26T13:40:23;11.95;;;7.13;;
77362;SDS011;66428;47.322;9.432;2023-06-26T13:42:51;12.18;;;7.18;;
77362;SDS011;66428;47.322;9.432;2023-06-26T13:45:19;7.95;;;6.22;;
77362;SDS011;66428;47.322;9.432;2023-06-26T13:47:57;9.07;;;6.82;;
77362;SDS011;66428;47.322;9.432;2023-06-26T13:50:28;14.60;;;6.78;;
77362;SDS011;66428;47.322;9.432;2023-06-26T13:53:15;8.52;;;6.53;;
77362;SDS011;66428;47.322;9.432;2023-06-26T13:55:43;11.65;;;7.05;;
77362;SDS011;66428;47.322;9.432;2023-06-26T13:58:11;8.73;;;6.38;;
77362;SDS011;66428;47.322;9.432;2023-06-26T14:00:42;8.77;;;6.78;;
77362;SDS011;66428;47.322;9.432;2023-06-26T14:03:17;9.82;;;6.70;;
77362;SDS011;66428;47.322;9.432;2023-06-26T14:05:45;8.85;;;7.28;;
77362;SDS011;66428;47.322;9.432;2023-06-26T14:08:14;9.55;;;7.03;;
77362;SDS011;66428;47.322;9.432;2023-06-26T14:10:42;8.85;;;6.63;;
77362;SDS011;66428;47.322;9.432;2023-06-26T14:13:10;10.82;;;7.93;;
77362;SDS011;66428;47.322;9.432;2023-06-26T14:15:42;9.32;;;7.25;;
77362;SDS011;66428;47.322;9.432;2023-06-26T14:18:12;9.25;;;6.68;;
77362;SDS011;66428;47.322;9.432;2023-06-26T14:20:40;10.40;;;7.40;;
77362;SDS011;66428;47.322;9.432;2023-06-26T14:23:07;9.98;;;7.18;;
77362;SDS011;66428;47.322;9.432;2023-06-26T14:25:37;9.85;;;7.15;;
77362;SDS011;66428;47.322;9.432;2023-06-26T14:28:04;8.82;;;6.53;;
77362;SDS011;66428;47.322;9.432;2023-06-26T14:30:32;11.25;;;7.82;;
77362;SDS011;66428;47.322;9.432;2023-06-26T14:33:00;9.90;;;7.20;;
77362;SDS011;66428;47.322;9.432;2023-06-26T14:35:30;9.18;;;6.85;;
77362;SDS011;66428;47.322;9.432;2023-06-26T14:37:57;10.60;;;7.28;;
77362;SDS011;66428;47.322;9.432;2023-06-26T14:40:25;11.90;;;7.03;;
77362;SDS011;66428;47.322;9.432;2023-06-26T14:42:55;10.52;;;8.15;;
77362;SDS011;66428;47.322;9.432;2023-06-26T14:45:23;9.27;;;6.85;;
77362;SDS011;66428;47.322;9.432;2023-06-26T14:47:51;10.10;;;7.35;;
77362;SDS011;66428;47.322;9.432;2023-06-26T14:50:19;10.65;;;7.53;;
77362;SDS011;66428;47.322;9.432;2023-06-26T14:52:47;11.48;;;7.45;;
77362;SDS011;66428;47.322;9.432;2023-06-26T14:55:15;9.82;;;7.32;;
77362;SDS011;66428;47.322;9.432;2023-06-26T14:57:45;9.05;;;7.18;;
77362;SDS011;66428;47.322;9.432;2023-06-26T15:00:17;10.70;;;7.78;;
77362;SDS011;66428;47.322;9.432;2023-06-26T15:02:48;10.52;;;6.88;;
77362;SDS011;66428;47.322;9.432;2023-06-26T15:05:24;9.68;;;7.15;;
77362;SDS011;66428;47.322;9.432;2023-06-26T15:07:51;10.02;;;7.63;;